createdAt,value
2019-02-21T00:01:35.448Z,15.90
2019-02-21T00:04:04.681Z,19.93
2019-02-21T00:06:33.257Z,17.57
2019-02-21T00:09:01.803Z,19.43
2019-02-21T00:11:30.367Z,16.00
2019-02-21T00:13:59.873Z,17.00
2019-02-21T00:16:28.407Z,16.10
2019-02-21T00:18:56.947Z,18.63
2019-02-21T00:21:25.515Z,19.17
2019-02-21T00:23:54.086Z,20.57
2019-02-21T00:26:22.648Z,18.60
2019-02-21T00:28:53.893Z,15.60
2019-02-21T00:31:22.719Z,17.87
2019-02-21T00:33:51.266Z,15.30
2019-02-21T00:36:21.270Z,13.90
2019-02-21T00:38:49.749Z,14.33
2019-02-21T00:41:18.362Z,17.03
2019-02-21T00:43:46.943Z,15.67
2019-02-21T00:46:15.474Z,14.93
2019-02-21T00:48:44.065Z,14.93
2019-02-21T00:51:14.187Z,15.83
2019-02-21T00:53:45.553Z,14.07
2019-02-21T00:56:14.073Z,17.00
2019-02-21T00:58:42.942Z,16.60
2019-02-21T01:01:11.567Z,15.77
2019-02-21T01:03:40.152Z,14.73
2019-02-21T01:06:08.705Z,18.77
2019-02-21T01:08:37.291Z,17.33
2019-02-21T01:11:06.180Z,17.23
2019-02-21T01:13:37.682Z,18.03
2019-02-21T01:16:06.267Z,15.03
2019-02-21T01:18:38.365Z,16.83
2019-02-21T01:21:06.859Z,18.17
2019-02-21T01:23:36.424Z,18.43
2019-02-21T01:26:05.003Z,18.17
2019-02-21T01:28:33.533Z,21.93
2019-02-21T01:31:02.128Z,19.83
2019-02-21T01:33:30.678Z,20.60
2019-02-21T01:35:59.568Z,18.43
2019-02-21T01:38:28.138Z,16.97
2019-02-21T01:40:56.694Z,17.40
2019-02-21T01:43:25.262Z,18.43
2019-02-21T01:45:56.618Z,19.20
2019-02-21T01:48:26.758Z,16.83
2019-02-21T01:50:56.865Z,16.43
2019-02-21T01:53:26.981Z,17.17
2019-02-21T01:55:55.529Z,16.90
2019-02-21T01:58:27.388Z,18.00
2019-02-21T02:00:56.054Z,18.80
2019-02-21T02:03:27.652Z,15.83
2019-02-21T02:05:56.155Z,21.53
2019-02-21T02:08:24.932Z,14.97
2019-02-21T02:10:53.480Z,18.97
2019-02-21T02:13:24.854Z,16.87
2019-02-21T02:15:52.304Z,16.50
2019-02-21T02:18:20.850Z,17.47
2019-02-21T02:20:50.446Z,16.73
2019-02-21T02:23:18.993Z,14.70
2019-02-21T02:25:47.481Z,16.07
2019-02-21T02:28:16.040Z,16.10
2019-02-21T02:30:44.639Z,14.93
2019-02-21T02:33:13.196Z,17.60
2019-02-21T02:35:41.744Z,17.47
2019-02-21T02:38:10.301Z,17.70
2019-02-21T02:40:38.854Z,16.00
2019-02-21T02:43:07.502Z,20.73
2019-02-21T02:45:36.048Z,15.90
2019-02-21T02:48:04.686Z,17.13
2019-02-21T02:50:33.283Z,16.87
2019-02-21T02:53:01.894Z,16.00
2019-02-21T02:55:30.417Z,17.80
2019-02-21T02:57:58.957Z,19.10
2019-02-21T03:00:27.509Z,17.40
2019-02-21T03:02:56.082Z,17.97
2019-02-21T03:05:24.628Z,16.93
2019-02-21T03:07:53.174Z,16.77
2019-02-21T03:10:21.751Z,18.07
2019-02-21T03:12:50.294Z,14.13
2019-02-21T03:15:21.620Z,14.00
2019-02-21T03:17:53.187Z,15.53
2019-02-21T03:20:22.233Z,18.90
2019-02-21T03:22:50.795Z,15.87
2019-02-21T03:25:22.092Z,16.77
2019-02-21T03:27:53.583Z,14.30
2019-02-21T03:30:22.132Z,19.67
2019-02-21T03:32:50.702Z,15.00
2019-02-21T03:35:20.962Z,15.37
2019-02-21T03:37:52.174Z,19.20
2019-02-21T03:40:20.811Z,18.77
2019-02-21T03:42:49.295Z,16.07
2019-02-21T03:45:17.977Z,16.13
2019-02-21T03:47:46.565Z,18.13
2019-02-21T03:50:15.249Z,20.73
2019-02-21T03:52:48.451Z,17.87
2019-02-21T03:55:21.844Z,15.63
2019-02-21T03:57:50.907Z,18.23
2019-02-21T04:00:19.533Z,16.40
2019-02-21T04:02:48.091Z,14.90
2019-02-21T04:05:16.653Z,16.13
2019-02-21T04:07:45.221Z,17.30
2019-02-21T04:10:13.831Z,17.47
2019-02-21T04:12:42.387Z,14.97
2019-02-21T04:15:12.655Z,16.17
2019-02-21T04:17:42.917Z,18.30
2019-02-21T04:20:11.513Z,15.20
2019-02-21T04:22:40.086Z,18.03
2019-02-21T04:25:08.646Z,16.20
2019-02-21T04:27:37.229Z,16.17
2019-02-21T04:30:07.837Z,17.20
2019-02-21T04:32:36.380Z,17.73
2019-02-21T04:35:05.702Z,17.23
2019-02-21T04:37:34.258Z,17.10
2019-02-21T04:40:02.850Z,19.97
2019-02-21T04:42:31.396Z,17.00
2019-02-21T04:45:01.573Z,18.07
2019-02-21T04:47:30.176Z,17.37
2019-02-21T04:49:58.715Z,14.17
2019-02-21T04:52:27.309Z,17.50
2019-02-21T04:54:55.866Z,15.37
2019-02-21T04:57:24.414Z,18.73
2019-02-21T04:59:52.978Z,17.90
2019-02-21T05:02:29.057Z,14.40
2019-02-21T05:04:51.720Z,13.80
2019-02-21T05:07:20.208Z,17.60
2019-02-21T05:09:57.924Z,15.23
2019-02-21T05:12:21.958Z,15.53
2019-02-21T05:14:50.537Z,14.87
2019-02-21T05:17:19.111Z,20.20
2019-02-21T05:19:47.670Z,16.80
2019-02-21T05:22:16.243Z,15.17
2019-02-21T05:24:44.813Z,17.33
2019-02-21T05:27:15.002Z,15.97
2019-02-21T05:29:43.654Z,16.00
2019-02-21T05:32:13.820Z,17.50
2019-02-21T05:34:49.744Z,20.23
2019-02-21T05:37:22.895Z,19.77
2019-02-21T05:40:09.058Z,17.10
2019-02-21T05:42:54.269Z,19.00
2019-02-21T05:45:42.181Z,19.37
2019-02-21T05:48:18.199Z,18.00
2019-02-21T05:50:55.493Z,19.50
2019-02-21T05:53:43.883Z,21.03
2019-02-21T05:56:14.130Z,18.60
2019-02-21T05:59:00.656Z,16.83
2019-02-21T06:01:34.871Z,18.27
2019-02-21T06:04:07.538Z,14.90
2019-02-21T06:06:38.498Z,18.93
2019-02-21T06:09:09.484Z,17.07
2019-02-21T06:11:48.081Z,18.73
2019-02-21T06:14:29.391Z,18.40
2019-02-21T06:17:02.568Z,18.87
2019-02-21T06:19:41.871Z,17.37
2019-02-21T06:22:27.968Z,17.30
2019-02-21T06:25:01.134Z,19.87
2019-02-21T06:27:38.095Z,20.37
2019-02-21T06:30:10.061Z,18.80
2019-02-21T06:32:40.714Z,21.57
2019-02-21T06:35:09.795Z,21.97
2019-02-21T06:37:40.177Z,19.07
2019-02-21T06:40:11.670Z,21.13
2019-02-21T06:42:41.755Z,20.80
2019-02-21T06:45:10.478Z,21.43
2019-02-21T06:47:41.994Z,24.40
2019-02-21T06:50:10.547Z,19.67
2019-02-21T06:52:40.842Z,20.80
2019-02-21T06:55:12.399Z,20.70
2019-02-21T06:57:40.967Z,23.83
2019-02-21T07:00:15.337Z,21.30
2019-02-21T07:02:43.886Z,19.37
2019-02-21T07:05:12.466Z,24.67
2019-02-21T07:07:41.030Z,22.70
2019-02-21T07:10:09.619Z,25.97
2019-02-21T07:12:38.196Z,18.70
2019-02-21T07:15:09.829Z,25.93
2019-02-21T07:17:48.534Z,23.23
2019-02-21T07:20:09.272Z,19.87
2019-02-21T07:22:37.812Z,24.73
2019-02-21T07:25:10.953Z,29.50
2019-02-21T07:27:43.734Z,20.10
2019-02-21T07:30:19.616Z,23.30
2019-02-21T07:32:42.638Z,18.97
2019-02-21T07:35:11.244Z,19.53
2019-02-21T07:37:42.938Z,21.13
2019-02-21T07:40:19.834Z,28.13
2019-02-21T07:42:48.182Z,20.37
2019-02-21T07:45:16.856Z,19.17
2019-02-21T07:47:45.431Z,21.10
2019-02-21T07:50:13.989Z,21.17
2019-02-21T07:52:42.544Z,20.37
2019-02-21T07:55:11.356Z,23.67
2019-02-21T07:57:41.442Z,24.63
2019-02-21T08:00:12.335Z,25.63
2019-02-21T08:02:43.688Z,29.43
2019-02-21T08:05:12.636Z,28.30
2019-02-21T08:07:43.196Z,25.97
2019-02-21T08:10:12.510Z,24.53
2019-02-21T08:12:43.708Z,24.03
2019-02-21T08:15:13.135Z,24.17
2019-02-21T08:17:41.697Z,23.77
2019-02-21T08:20:11.833Z,24.73
2019-02-21T08:22:40.380Z,24.40
2019-02-21T08:25:10.501Z,21.63
2019-02-21T08:27:39.104Z,27.43
2019-02-21T08:30:10.981Z,26.63
2019-02-21T08:32:57.460Z,22.70
2019-02-21T08:35:26.034Z,22.60
2019-02-21T08:37:59.627Z,25.20
2019-02-21T08:40:30.957Z,21.83
2019-02-21T08:43:04.081Z,23.17
2019-02-21T08:45:37.066Z,23.80
2019-02-21T08:48:05.937Z,23.90
2019-02-21T08:50:37.162Z,26.90
2019-02-21T08:53:05.747Z,29.93
2019-02-21T08:55:34.421Z,27.27
2019-02-21T08:58:07.985Z,25.70
2019-02-21T09:00:36.714Z,25.03
2019-02-21T09:03:05.333Z,25.90
2019-02-21T09:05:34.068Z,31.90
2019-02-21T09:08:02.629Z,25.90
2019-02-21T09:10:31.201Z,26.50
2019-02-21T09:13:07.471Z,24.57
2019-02-21T09:15:46.348Z,25.80
2019-02-21T09:18:15.659Z,24.40
2019-02-21T09:20:47.769Z,26.87
2019-02-21T09:23:15.952Z,25.43
2019-02-21T09:25:44.501Z,26.50
2019-02-21T09:28:15.518Z,26.63
2019-02-21T09:30:43.297Z,27.50
2019-02-21T09:33:17.537Z,27.60
2019-02-21T09:35:44.128Z,29.47
2019-02-21T09:38:14.149Z,27.17
2019-02-21T09:40:49.221Z,34.47
2019-02-21T09:43:17.846Z,29.63
2019-02-21T09:45:49.204Z,30.20
2019-02-21T09:48:42.490Z,31.23
2019-02-21T09:51:11.055Z,30.00
2019-02-21T09:53:41.348Z,28.67
2019-02-21T09:56:12.615Z,35.03
2019-02-21T09:58:41.104Z,35.13
2019-02-21T10:01:23.784Z,31.83
2019-02-21T10:03:52.345Z,31.37
2019-02-21T10:06:20.895Z,32.37
2019-02-21T10:08:49.399Z,35.13
2019-02-21T10:11:19.478Z,30.30
2019-02-21T10:13:48.053Z,30.37
2019-02-21T10:16:19.648Z,34.73
2019-02-21T10:18:48.196Z,36.03
2019-02-21T10:21:16.679Z,29.97
2019-02-21T10:23:45.242Z,33.37
2019-02-21T10:26:16.970Z,29.20
2019-02-21T10:28:45.507Z,30.93
2019-02-21T10:31:14.092Z,27.50
2019-02-21T10:33:46.859Z,31.57
2019-02-21T10:36:12.873Z,30.27
2019-02-21T10:38:41.437Z,30.03
2019-02-21T10:41:09.976Z,34.17
2019-02-21T10:43:38.576Z,27.73
2019-02-21T10:46:07.138Z,30.47
2019-02-21T10:48:35.711Z,32.80
2019-02-21T10:51:04.295Z,33.73
2019-02-21T10:53:32.874Z,30.10
2019-02-21T10:56:01.403Z,28.33
2019-02-21T10:58:32.722Z,30.17
2019-02-21T11:01:04.290Z,29.33
2019-02-21T11:03:33.052Z,30.90
2019-02-21T11:06:01.665Z,33.63
2019-02-21T11:08:30.346Z,28.30
2019-02-21T11:10:58.912Z,29.10
2019-02-21T11:13:27.476Z,27.10
2019-02-21T11:15:56.031Z,26.97
2019-02-21T11:18:24.588Z,26.27
2019-02-21T11:20:53.128Z,25.27
2019-02-21T11:23:22.592Z,31.50
2019-02-21T11:25:51.289Z,29.27
2019-02-21T11:28:19.875Z,28.97
2019-02-21T11:30:48.446Z,33.07
2019-02-21T11:33:17.080Z,29.20
2019-02-21T11:35:45.691Z,28.77
2019-02-21T11:38:14.250Z,24.27
2019-02-21T11:40:42.909Z,20.07
2019-02-21T11:43:11.492Z,20.57
2019-02-21T11:45:40.122Z,21.20
2019-02-21T11:48:09.411Z,19.30
2019-02-21T11:50:37.930Z,21.10
2019-02-21T11:53:06.593Z,28.70
2019-02-21T11:55:35.232Z,25.27
2019-02-21T11:58:08.277Z,19.97
2019-02-21T12:00:38.465Z,22.60
2019-02-21T12:03:07.106Z,22.33
2019-02-21T12:05:35.677Z,19.10
2019-02-21T12:08:04.323Z,22.73
2019-02-21T12:10:32.888Z,24.47
2019-02-21T12:13:03.669Z,26.77
2019-02-21T12:15:32.037Z,24.03
2019-02-21T12:18:03.357Z,21.40
2019-02-21T12:20:35.922Z,23.80
2019-02-21T12:23:04.548Z,21.93
2019-02-21T12:25:33.107Z,26.57
2019-02-21T12:28:01.671Z,24.13
2019-02-21T12:30:34.549Z,25.13
2019-02-21T12:33:05.629Z,30.70
2019-02-21T12:35:37.294Z,26.83
2019-02-21T12:38:05.843Z,19.80
2019-02-21T12:40:37.342Z,27.03
2019-02-21T12:43:06.085Z,27.83
2019-02-21T12:45:34.649Z,23.57
2019-02-21T12:48:06.195Z,19.50
2019-02-21T12:50:43.938Z,19.70
2019-02-21T12:53:05.040Z,17.10
2019-02-21T12:55:33.624Z,19.33
2019-02-21T12:58:02.209Z,16.57
2019-02-21T13:00:30.800Z,16.90
2019-02-21T13:03:02.331Z,14.83
2019-02-21T13:05:40.588Z,18.20
2019-02-21T13:08:05.286Z,16.63
2019-02-21T13:10:34.967Z,18.57
2019-02-21T13:13:09.182Z,18.73
2019-02-21T13:15:38.251Z,22.50
2019-02-21T13:18:15.851Z,20.00
2019-02-21T13:20:39.793Z,16.63
2019-02-21T13:23:08.380Z,20.17
2019-02-21T13:25:37.012Z,20.57
2019-02-21T13:28:05.639Z,18.77
2019-02-21T13:30:34.247Z,22.27
2019-02-21T13:33:02.828Z,21.07
2019-02-21T13:35:31.408Z,19.30
2019-02-21T13:37:59.962Z,15.43
2019-02-21T13:40:28.519Z,13.87
2019-02-21T13:42:57.092Z,13.43
2019-02-21T13:45:25.671Z,12.50
2019-02-21T13:47:54.324Z,17.50
2019-02-21T13:50:23.844Z,11.70
2019-02-21T13:52:52.602Z,17.30
2019-02-21T13:55:21.374Z,13.70
2019-02-21T13:57:51.577Z,18.60
2019-02-21T14:00:23.769Z,15.37
2019-02-21T14:02:55.385Z,15.87
2019-02-21T14:05:23.921Z,20.20
2019-02-21T14:07:52.763Z,19.90
2019-02-21T14:10:21.328Z,18.53
2019-02-21T14:12:51.690Z,18.63
2019-02-21T14:15:30.441Z,24.53
2019-02-21T14:18:01.539Z,18.80
2019-02-21T14:20:30.147Z,19.70
2019-02-21T14:23:02.117Z,17.17
2019-02-21T14:25:40.371Z,20.00
2019-02-21T14:28:01.324Z,17.60
2019-02-21T14:30:32.638Z,19.60
2019-02-21T14:33:01.259Z,19.47
2019-02-21T14:35:45.119Z,21.07
2019-02-21T14:38:26.970Z,17.83
2019-02-21T14:40:45.707Z,21.93
2019-02-21T14:43:16.909Z,18.40
2019-02-21T14:45:44.485Z,20.23
2019-02-21T14:48:13.096Z,19.13
2019-02-21T14:50:44.342Z,20.30
2019-02-21T14:53:15.378Z,19.90
2019-02-21T14:55:47.293Z,19.10
2019-02-21T14:58:20.514Z,24.40
2019-02-21T15:00:57.874Z,23.37
2019-02-21T15:03:27.942Z,22.93
2019-02-21T15:06:00.976Z,22.33
2019-02-21T15:08:30.092Z,21.70
2019-02-21T15:11:08.093Z,21.73
2019-02-21T15:13:42.388Z,15.87
2019-02-21T15:16:10.951Z,19.00
2019-02-21T15:18:55.425Z,18.47
2019-02-21T15:21:26.903Z,16.30
2019-02-21T15:23:57.439Z,16.80
2019-02-21T15:26:26.039Z,18.07
2019-02-21T15:28:59.973Z,16.73
2019-02-21T15:32:11.121Z,22.27
2019-02-21T15:34:38.016Z,18.57
2019-02-21T15:37:07.702Z,18.67
2019-02-21T15:39:36.269Z,19.80
2019-02-21T15:42:09.119Z,20.13
2019-02-21T15:44:37.774Z,22.87
2019-02-21T15:47:06.347Z,20.43
2019-02-21T15:49:34.915Z,23.43
2019-02-21T15:52:03.501Z,20.83
2019-02-21T15:54:32.030Z,19.17
2019-02-21T15:57:00.623Z,19.87
2019-02-21T15:59:29.205Z,19.73
2019-02-21T16:01:57.754Z,20.53
2019-02-21T16:04:26.692Z,21.60
2019-02-21T16:06:57.941Z,20.63
2019-02-21T16:09:26.462Z,23.30
2019-02-21T16:11:55.038Z,21.40
2019-02-21T16:14:23.662Z,18.77
2019-02-21T16:16:52.278Z,21.40
2019-02-21T16:19:20.843Z,19.60
2019-02-21T16:21:49.398Z,20.67
2019-02-21T16:24:17.975Z,19.00
2019-02-21T16:26:46.634Z,18.53
2019-02-21T16:29:15.228Z,19.53
2019-02-21T16:31:47.925Z,22.70
2019-02-21T16:34:21.215Z,19.40
2019-02-21T16:37:02.157Z,20.83
2019-02-21T16:39:26.551Z,21.37
2019-02-21T16:42:03.746Z,19.97
2019-02-21T16:44:32.431Z,24.23
2019-02-21T16:47:01.094Z,20.90
2019-02-21T16:49:32.002Z,23.37
2019-02-21T16:52:01.054Z,26.57
2019-02-21T16:54:29.620Z,21.93
2019-02-21T16:56:58.203Z,26.87
2019-02-21T16:59:26.767Z,25.37
2019-02-21T17:01:55.487Z,25.47
2019-02-21T17:04:24.063Z,28.17
2019-02-21T17:06:55.588Z,23.37
2019-02-21T17:09:24.170Z,21.90
2019-02-21T17:11:52.719Z,24.37
2019-02-21T17:14:21.201Z,25.63
2019-02-21T17:16:49.953Z,25.73
2019-02-21T17:19:23.837Z,23.70
2019-02-21T17:21:58.854Z,20.90
2019-02-21T17:24:34.275Z,26.70
2019-02-21T17:27:03.529Z,30.40
2019-02-21T17:29:32.114Z,34.23
2019-02-21T17:32:00.671Z,27.10
2019-02-21T17:34:29.253Z,27.67
2019-02-21T17:36:57.849Z,19.97
2019-02-21T17:39:26.403Z,23.00
2019-02-21T17:41:55.006Z,24.50
2019-02-21T17:44:23.579Z,24.97
2019-02-21T17:46:52.146Z,22.77
2019-02-21T17:49:20.708Z,24.23
2019-02-21T17:51:49.255Z,25.07
2019-02-21T17:54:19.981Z,28.13
2019-02-21T17:56:53.437Z,31.73
2019-02-21T17:59:22.373Z,28.87
2019-02-21T18:01:50.990Z,28.57
2019-02-21T18:04:21.304Z,27.47
2019-02-21T18:06:49.983Z,31.33
2019-02-21T18:09:18.549Z,27.13
2019-02-21T18:11:47.128Z,27.77
2019-02-21T18:14:15.689Z,25.37
2019-02-21T18:16:44.461Z,24.50
2019-02-21T18:19:13.037Z,29.07
2019-02-21T18:21:41.947Z,30.33
2019-02-21T18:24:10.471Z,27.97
2019-02-21T18:26:39.691Z,26.17
2019-02-21T18:29:08.893Z,25.77
2019-02-21T18:31:51.648Z,26.10
2019-02-21T18:34:16.281Z,31.07
2019-02-21T18:36:44.836Z,26.03
2019-02-21T18:39:13.718Z,29.97
2019-02-21T18:41:43.270Z,29.40
2019-02-21T18:44:19.009Z,32.63
2019-02-21T18:46:47.638Z,30.43
2019-02-21T18:49:16.195Z,29.93
2019-02-21T18:51:44.796Z,30.00
2019-02-21T18:54:13.347Z,32.60
2019-02-21T18:56:41.914Z,35.00
2019-02-21T18:59:16.863Z,31.00
2019-02-21T19:01:45.770Z,31.03
2019-02-21T19:04:14.279Z,26.43
2019-02-21T19:06:42.831Z,28.47
2019-02-21T19:09:11.450Z,29.53
2019-02-21T19:11:40.143Z,27.47
2019-02-21T19:14:08.808Z,32.60
2019-02-21T19:16:37.396Z,32.20
2019-02-21T19:19:05.981Z,28.27
2019-02-21T19:21:34.549Z,31.03
2019-02-21T19:24:03.127Z,30.03
2019-02-21T19:26:31.849Z,29.00
2019-02-21T19:29:00.420Z,30.60
2019-02-21T19:31:28.985Z,31.67
2019-02-21T19:33:57.525Z,29.23
2019-02-21T19:36:26.110Z,31.83
2019-02-21T19:38:56.198Z,29.47
2019-02-21T19:41:26.330Z,31.63
2019-02-21T19:43:54.885Z,28.77
2019-02-21T19:46:25.147Z,30.67
2019-02-21T19:48:53.872Z,27.47
2019-02-21T19:51:22.504Z,31.93
2019-02-21T19:53:54.621Z,31.67
2019-02-21T19:56:23.174Z,29.60
2019-02-21T19:58:56.366Z,30.87
2019-02-21T20:01:25.030Z,30.70
2019-02-21T20:03:53.638Z,29.77
2019-02-21T20:06:22.210Z,31.53
2019-02-21T20:08:50.818Z,33.90
2019-02-21T20:11:19.434Z,27.77
2019-02-21T20:13:48.171Z,29.57
2019-02-21T20:16:17.724Z,34.07
2019-02-21T20:18:46.546Z,27.70
2019-02-21T20:21:15.064Z,30.10
2019-02-21T20:23:43.633Z,28.67
2019-02-21T20:26:18.320Z,34.33
2019-02-21T20:28:42.678Z,32.87
2019-02-21T20:31:11.414Z,30.33
2019-02-21T20:33:40.124Z,35.50
2019-02-21T20:36:08.782Z,30.97
2019-02-21T20:38:38.902Z,34.17
2019-02-21T20:41:08.994Z,29.53
2019-02-21T20:43:38.357Z,34.67
2019-02-21T20:46:06.982Z,28.63
2019-02-21T20:48:35.456Z,33.83
2019-02-21T20:51:04.198Z,32.17
2019-02-21T20:53:32.773Z,31.60
2019-02-21T20:56:01.716Z,33.23
2019-02-21T20:58:30.297Z,34.10
2019-02-21T21:00:58.885Z,32.83
2019-02-21T21:03:27.521Z,32.93
2019-02-21T21:05:56.089Z,37.13
2019-02-21T21:08:24.567Z,32.20
2019-02-21T21:10:53.172Z,35.23
2019-02-21T21:13:21.798Z,29.90
2019-02-21T21:15:50.362Z,36.73
2019-02-21T21:18:19.008Z,31.60
2019-02-21T21:20:47.552Z,29.23
2019-02-21T21:23:16.107Z,30.80
2019-02-21T21:25:44.711Z,29.50
2019-02-21T21:28:14.798Z,31.63
2019-02-21T21:30:43.355Z,34.07
2019-02-21T21:33:11.940Z,32.20
2019-02-21T21:35:43.273Z,27.67
2019-02-21T21:38:11.830Z,30.80
2019-02-21T21:40:40.549Z,35.27
2019-02-21T21:43:09.132Z,30.67
2019-02-21T21:45:40.506Z,28.40
2019-02-21T21:48:09.116Z,30.33
2019-02-21T21:50:37.659Z,34.97
2019-02-21T21:53:06.835Z,27.67
2019-02-21T21:55:40.981Z,28.30
2019-02-21T21:58:09.521Z,32.17
2019-02-21T22:00:38.172Z,36.23
2019-02-21T22:03:06.777Z,29.33
2019-02-21T22:05:35.351Z,31.40
2019-02-21T22:08:03.883Z,35.77
2019-02-21T22:10:32.445Z,33.37
2019-02-21T22:13:02.554Z,31.03
2019-02-21T22:15:35.392Z,32.90
2019-02-21T22:18:04.007Z,33.77
2019-02-21T22:20:32.626Z,35.33
2019-02-21T22:23:02.820Z,42.03
2019-02-21T22:25:33.875Z,34.10
2019-02-21T22:28:02.446Z,40.40
2019-02-21T22:30:31.011Z,32.87
2019-02-21T22:32:59.564Z,35.03
2019-02-21T22:35:28.157Z,33.57
2019-02-21T22:37:56.815Z,35.47
2019-02-21T22:40:25.363Z,35.10
2019-02-21T22:42:53.975Z,35.97
2019-02-21T22:45:22.524Z,31.33
2019-02-21T22:47:51.095Z,33.00
2019-02-21T22:50:20.222Z,32.00
2019-02-21T22:52:48.865Z,30.80
2019-02-21T22:55:17.485Z,36.40
2019-02-21T22:57:46.107Z,37.50
2019-02-21T23:00:30.924Z,30.47
2019-02-21T23:03:00.357Z,27.87
2019-02-21T23:05:43.969Z,31.90
2019-02-21T23:08:15.621Z,33.00
2019-02-21T23:10:44.173Z,30.80
2019-02-21T23:13:15.716Z,30.57
2019-02-21T23:15:44.323Z,33.67
2019-02-21T23:18:12.950Z,35.63
2019-02-21T23:20:41.563Z,31.93
2019-02-21T23:23:10.163Z,29.43
2019-02-21T23:25:39.859Z,34.57
2019-02-21T23:28:11.082Z,35.80
2019-02-21T23:30:40.020Z,29.83
2019-02-21T23:33:09.580Z,34.37
2019-02-21T23:35:38.158Z,36.03
2019-02-21T23:38:06.702Z,33.30
2019-02-21T23:40:37.984Z,31.43
2019-02-21T23:43:06.517Z,34.73
2019-02-21T23:45:35.050Z,33.50
2019-02-21T23:48:06.113Z,34.50
2019-02-21T23:50:36.741Z,31.10
2019-02-21T23:53:05.306Z,29.70
2019-02-21T23:55:33.841Z,33.50
2019-02-21T23:58:02.356Z,32.83
